Time;durP1;ratioP1;P1;durP2;ratioP2;P2;SDS_P1;SDS_P2;PMS_P1;PMS_P2;Temp;Humidity;BMP_temperature;BMP_pressure;BME280_temperature;BME280_humidity;BME280_pressure;Samples;Min_cycle;Max_cycle;Signal;HPM_P1;HPM_P2
2022/03/17 00:01:39;;;;;;;39.47;25.15;;;;;;;9.61;100.00;101931.06;4925819;28;20047;-74
2022/03/17 00:04:05;;;;;;;41.45;25.75;;;;;;;9.57;100.00;101919.00;4941391;28;20092;-74
2022/03/17 00:06:30;;;;;;;39.38;26.88;;;;;;;9.62;100.00;101915.75;4922262;28;20055;-73
2022/03/17 00:08:55;;;;;;;36.33;24.17;;;;;;;9.62;100.00;101911.25;4939465;28;20615;-74
2022/03/17 00:11:22;;;;;;;45.28;27.50;;;;;;;9.59;100.00;101895.47;4934223;28;20030;-74
2022/03/17 00:13:47;;;;;;;39.35;26.05;;;;;;;9.61;100.00;101909.56;4931075;28;20047;-73
2022/03/17 00:16:13;;;;;;;38.00;25.40;;;;;;;9.51;100.00;101914.34;4940805;28;20062;-74
2022/03/17 00:18:38;;;;;;;39.65;25.58;;;;;;;9.52;100.00;101908.78;4912055;28;23907;-73
2022/03/17 00:21:04;;;;;;;41.22;26.10;;;;;;;9.49;100.00;101914.53;4934234;28;20747;-73
2022/03/17 00:23:30;;;;;;;38.80;26.42;;;;;;;9.45;100.00;101912.38;4928066;28;24281;-74
2022/03/17 00:25:56;;;;;;;41.60;26.73;;;;;;;9.40;100.00;101901.31;4941185;28;20034;-73
2022/03/17 00:28:21;;;;;;;41.30;27.00;;;;;;;9.43;100.00;101895.59;4918440;28;20055;-73
2022/03/17 00:30:47;;;;;;;38.10;26.00;;;;;;;9.43;100.00;101896.41;4940347;28;20073;-74
2022/03/17 00:33:12;;;;;;;37.67;26.83;;;;;;;9.45;100.00;101898.94;4931159;28;20042;-73
2022/03/17 00:35:44;;;;;;;43.38;27.27;;;;;;;9.39;100.00;101886.19;4928955;28;20059;-74
2022/03/17 00:38:15;;;;;;;40.10;27.27;;;;;;;9.43;100.00;101899.09;4944310;28;20045;-73
2022/03/17 00:40:41;;;;;;;38.38;26.95;;;;;;;9.44;100.00;101897.25;4928499;28;20065;-74
2022/03/17 00:43:11;;;;;;;39.72;27.02;;;;;;;9.47;100.00;101891.50;4946945;28;20030;-74
2022/03/17 00:45:37;;;;;;;41.05;27.50;;;;;;;9.41;100.00;101878.81;4933069;28;20062;-74
2022/03/17 00:48:03;;;;;;;42.90;29.10;;;;;;;9.44;100.00;101881.09;4946596;28;20031;-74
2022/03/17 00:50:29;;;;;;;38.75;27.38;;;;;;;9.46;100.00;101884.47;4936002;28;22823;-74
2022/03/17 00:52:54;;;;;;;40.72;27.05;;;;;;;9.39;100.00;101872.75;4950833;28;20037;-73
2022/03/17 00:55:21;;;;;;;40.92;27.75;;;;;;;9.43;100.00;101874.91;4949094;28;20061;-74
2022/03/17 00:57:46;;;;;;;45.25;27.75;;;;;;;9.42;100.00;101872.41;4928447;28;20054;-73
2022/03/17 01:00:14;;;;;;;44.67;29.10;;;;;;;9.35;100.00;101866.91;4949507;28;20387;-73
2022/03/17 01:02:43;;;;;;;40.05;27.48;;;;;;;9.42;100.00;101861.66;4924173;28;20145;-73
2022/03/17 01:05:10;;;;;;;46.70;29.60;;;;;;;9.43;100.00;101857.94;4950424;28;20032;-73
2022/03/17 01:07:37;;;;;;;41.75;29.00;;;;;;;9.43;100.00;101852.56;4928519;28;20081;-74
2022/03/17 01:10:07;;;;;;;45.63;29.13;;;;;;;9.38;100.00;101849.59;4947020;28;20098;-74
2022/03/17 01:12:32;;;;;;;48.78;29.95;;;;;;;9.37;100.00;101858.66;4934344;28;20069;-73
2022/03/17 01:14:58;;;;;;;44.95;29.25;;;;;;;9.36;100.00;101859.66;4947751;28;20031;-73
2022/03/17 01:17:24;;;;;;;43.05;28.80;;;;;;;9.40;100.00;101855.59;4944007;28;20042;-74
2022/03/17 01:19:49;;;;;;;41.30;27.77;;;;;;;9.34;100.00;101841.03;4929459;28;20051;-73
2022/03/17 01:22:16;;;;;;;44.40;29.02;;;;;;;9.35;100.00;101844.56;4940200;28;20049;-73
2022/03/17 01:24:42;;;;;;;41.60;29.15;;;;;;;9.33;100.00;101847.41;4927730;28;20147;-73
2022/03/17 01:27:08;;;;;;;45.78;28.20;;;;;;;9.34;100.00;101849.09;4938503;28;20756;-73
2022/03/17 01:29:33;;;;;;;43.67;29.20;;;;;;;9.35;100.00;101840.00;4932237;28;20315;-73
2022/03/17 01:31:59;;;;;;;45.13;28.73;;;;;;;9.28;100.00;101836.38;4944573;28;20038;-74
2022/03/17 01:34:24;;;;;;;46.45;29.02;;;;;;;9.33;100.00;101837.50;4934073;28;20042;-73
2022/03/17 01:36:50;;;;;;;41.90;29.27;;;;;;;9.29;100.00;101836.19;4964658;28;20031;-73
2022/03/17 01:39:15;;;;;;;39.53;27.73;;;;;;;9.35;100.00;101840.00;4943832;28;20064;-73
2022/03/17 01:41:41;;;;;;;39.63;28.85;;;;;;;9.33;100.00;101820.53;4931960;28;20050;-73
2022/03/17 01:44:06;;;;;;;40.00;27.20;;;;;;;9.35;100.00;101823.88;4941687;28;20044;-73
2022/03/17 01:47:26;;;;;;;43.25;28.20;;;;;;;9.35;100.00;101814.97;4925693;28;25189;-73
2022/03/17 01:49:17;;;;;;;44.42;27.60;;;;;;;9.35;100.00;101820.34;4941806;28;20038;-73
2022/03/17 01:51:45;;;;;;;42.55;27.98;;;;;;;9.33;100.00;101821.34;4928693;28;20053;-73
2022/03/17 01:54:11;;;;;;;41.75;27.70;;;;;;;9.37;100.00;101813.78;4957153;28;20041;-74
2022/03/17 01:56:37;;;;;;;42.88;28.17;;;;;;;9.36;100.00;101803.19;4932605;28;20046;-73
2022/03/17 01:59:02;;;;;;;38.83;28.25;;;;;;;9.39;100.00;101810.91;4938119;28;20026;-74
2022/03/17 02:01:28;;;;;;;42.80;28.05;;;;;;;9.41;100.00;101817.78;4931404;28;20042;-74
2022/03/17 02:03:56;;;;;;;41.47;27.75;;;;;;;9.40;100.00;101807.19;4925857;28;20105;-74
2022/03/17 02:06:23;;;;;;;43.88;28.02;;;;;;;9.45;100.00;101810.19;4941900;28;21001;-74
2022/03/17 02:08:49;;;;;;;42.67;28.83;;;;;;;9.41;100.00;101812.41;4926594;28;20148;-73
2022/03/17 02:13:58;;;;;;;43.08;27.42;;;;;;;9.43;100.00;101809.53;4923532;28;20068;-73
2022/03/17 02:16:27;;;;;;;41.58;28.17;;;;;;;9.44;100.00;101800.44;4942628;28;20733;-73
2022/03/17 02:18:52;;;;;;;42.28;28.55;;;;;;;9.48;100.00;101812.53;4930448;28;20520;-74
2022/03/17 02:21:18;;;;;;;39.50;26.85;;;;;;;9.43;100.00;101804.16;4942727;28;20073;-73
2022/03/17 02:26:27;;;;;;;;;;;;;;;9.45;100.00;101799.44;4963166;28;20185;-74
2022/03/17 02:28:53;;;;;;;38.33;26.83;;;;;;;9.43;100.00;101793.38;4946595;28;19922;-73
2022/03/17 02:31:18;;;;;;;38.13;27.13;;;;;;;9.45;100.00;101786.81;4932606;28;20056;-74
2022/03/17 02:33:43;;;;;;;44.83;27.65;;;;;;;9.46;100.00;101784.97;4961459;28;20034;-74
2022/03/17 02:36:09;;;;;;;41.13;27.45;;;;;;;9.44;100.00;101793.22;4930586;28;20635;-74
2022/03/17 02:38:35;;;;;;;36.85;25.48;;;;;;;9.47;100.00;101794.69;4946522;28;20478;-74
2022/03/17 02:41:00;;;;;;;43.42;28.95;;;;;;;9.49;100.00;101787.28;4941975;28;20068;-74
2022/03/17 02:43:26;;;;;;;41.70;27.92;;;;;;;9.51;100.00;101790.63;4960906;28;20033;-74
2022/03/17 02:45:52;;;;;;;40.33;27.08;;;;;;;9.48;100.00;101786.47;4955582;28;20037;-74
2022/03/17 02:48:18;;;;;;;42.55;28.90;;;;;;;9.47;100.00;101783.94;4948478;28;20046;-74
2022/03/17 02:50:45;;;;;;;40.53;28.27;;;;;;;9.50;100.00;101795.16;4957880;28;20386;-74
2022/03/17 02:53:11;;;;;;;40.88;27.25;;;;;;;9.53;100.00;101785.91;4934042;28;20073;-74
2022/03/17 02:55:38;;;;;;;40.88;27.42;;;;;;;9.58;100.00;101778.09;4946671;28;20045;-73
2022/03/17 02:58:06;;;;;;;41.38;28.15;;;;;;;9.59;100.00;101787.88;4928177;28;20053;-73
2022/03/17 03:00:32;;;;;;;42.10;28.25;;;;;;;9.61;100.00;101780.44;4942302;28;20045;-72
2022/03/17 03:02:57;;;;;;;41.35;27.40;;;;;;;9.69;100.00;101776.84;4935235;28;20363;-73
2022/03/17 03:05:23;;;;;;;40.15;28.42;;;;;;;9.71;100.00;101785.56;4944506;28;20474;-72
2022/03/17 03:07:49;;;;;;;44.38;28.50;;;;;;;9.72;100.00;101771.06;4957350;28;20141;-73
2022/03/17 03:10:14;;;;;;;40.70;28.13;;;;;;;9.69;100.00;101772.28;4936565;28;20064;-72
2022/03/17 03:12:40;;;;;;;43.63;29.23;;;;;;;9.75;100.00;101786.84;4932389;28;20069;-72
2022/03/17 03:15:06;;;;;;;43.28;26.92;;;;;;;9.77;100.00;101780.28;4933044;28;20924;-73
2022/03/17 03:17:32;;;;;;;40.50;28.10;;;;;;;9.77;100.00;101785.66;4960426;28;20041;-73
2022/03/17 03:19:58;;;;;;;40.75;28.40;;;;;;;9.77;100.00;101791.03;4919409;28;20050;-72
2022/03/17 03:22:28;;;;;;;40.50;28.23;;;;;;;9.72;100.00;101777.31;4940528;28;20045;-73
2022/03/17 03:24:55;;;;;;;37.85;27.55;;;;;;;9.77;100.00;101793.72;4928570;28;20535;-72
2022/03/17 03:27:20;;;;;;;40.42;27.88;;;;;;;9.72;100.00;101788.06;4948487;28;20434;-72
2022/03/17 03:29:46;;;;;;;45.42;29.63;;;;;;;9.74;100.00;101791.41;4934617;28;20038;-72
2022/03/17 03:32:12;;;;;;;39.45;28.25;;;;;;;9.71;100.00;101780.16;4943400;28;23572;-72
2022/03/17 03:34:38;;;;;;;40.67;27.45;;;;;;;9.72;100.00;101782.69;4960065;28;20038;-72
2022/03/17 03:39:47;;;;;;;41.15;29.35;;;;;;;9.70;100.00;101789.28;4944968;28;20090;-73
2022/03/17 03:42:13;;;;;;;54.33;30.75;;;;;;;9.69;100.00;101799.19;4945139;28;21063;-73
2022/03/17 03:44:39;;;;;;;40.10;29.27;;;;;;;9.72;100.00;101793.47;4960309;28;20073;-72
2022/03/17 03:47:05;;;;;;;39.70;28.65;;;;;;;9.74;100.00;101794.09;4934995;28;20510;-73
2022/03/17 03:49:31;;;;;;;38.97;28.33;;;;;;;9.77;100.00;101793.72;4959482;28;20023;-73
2022/03/17 03:51:56;;;;;;;42.70;28.33;;;;;;;9.69;100.00;101772.28;4963655;28;20048;-73
2022/03/17 03:54:22;;;;;;;44.88;29.75;;;;;;;9.80;100.00;101787.97;4933356;28;20054;-72
2022/03/17 03:56:55;;;;;;;37.75;27.85;;;;;;;9.82;100.00;101774.31;4963954;28;20104;-73
2022/03/17 03:59:23;;;;;;;41.55;28.88;;;;;;;9.84;100.00;101790.31;4930848;28;20050;-73
2022/03/17 04:01:56;;;;;;;40.47;29.08;;;;;;;9.91;100.00;101792.06;4944202;28;20463;-73
2022/03/17 04:04:23;;;;;;;42.03;29.38;;;;;;;9.89;100.00;101798.66;4927407;28;22735;-73
2022/03/17 04:06:55;;;;;;;44.67;30.25;;;;;;;9.92;100.00;101800.97;4932903;28;20034;-73
2022/03/17 04:09:24;;;;;;;41.45;29.02;;;;;;;10.01;100.00;101791.78;4934555;28;20515;-74
2022/03/17 04:11:51;;;;;;;45.25;30.52;;;;;;;9.98;100.00;101795.69;4944206;28;20038;-73
2022/03/17 04:14:16;;;;;;;43.22;29.23;;;;;;;9.98;100.00;101793.00;4942266;28;20030;-73
2022/03/17 04:16:43;;;;;;;44.50;28.38;;;;;;;10.00;100.00;101800.88;4932725;28;20549;-73
2022/03/17 04:19:11;;;;;;;42.05;30.30;;;;;;;9.99;100.00;101800.03;4942712;28;20059;-73
2022/03/17 04:21:36;;;;;;;42.08;30.02;;;;;;;9.98;100.00;101811.00;4930451;28;20050;-73
2022/03/17 04:24:02;;;;;;;43.60;30.83;;;;;;;9.90;100.00;101819.16;4943962;28;20043;-73
2022/03/17 04:26:28;;;;;;;39.80;30.77;;;;;;;9.85;100.00;101808.94;4927828;28;20046;-73
2022/03/17 04:28:54;;;;;;;41.85;30.83;;;;;;;9.70;100.00;101811.63;4950338;28;20037;-74
2022/03/17 04:31:23;;;;;;;42.65;30.88;;;;;;;9.45;100.00;101818.25;4928922;28;22494;-75
2022/03/17 04:33:49;;;;;;;46.72;32.85;;;;;;;9.29;100.00;101811.97;4943487;28;20060;-75
2022/03/17 04:36:15;;;;;;;42.92;30.92;;;;;;;9.17;100.00;101826.06;4941215;28;20082;-75
2022/03/17 04:38:41;;;;;;;51.65;33.78;;;;;;;9.14;100.00;101821.03;4939904;28;20541;-74
2022/03/17 04:41:08;;;;;;;53.13;36.08;;;;;;;9.25;100.00;101829.50;4951079;28;20034;-74
2022/03/17 04:43:34;;;;;;;56.15;36.90;;;;;;;9.27;100.00;101822.09;4929783;28;20060;-74
2022/03/17 04:46:00;;;;;;;50.33;36.05;;;;;;;9.36;100.00;101835.47;4943605;28;20037;-75
2022/03/17 04:48:25;;;;;;;57.30;38.22;;;;;;;9.37;100.00;101829.06;4928530;28;20065;-75
2022/03/17 04:50:51;;;;;;;55.78;40.03;;;;;;;9.35;100.00;101844.56;4947176;28;20056;-77
2022/03/17 04:53:32;;;;;;;62.38;40.63;;;;;;;9.28;100.00;101839.91;4941165;28;20053;-76
2022/03/17 04:56:05;;;;;;;60.90;43.78;;;;;;;9.16;100.00;101845.84;4946129;28;20058;-77
2022/03/17 04:58:32;;;;;;;62.85;44.42;;;;;;;9.11;100.00;101861.69;4938199;28;20062;-78
2022/03/17 05:01:03;;;;;;;67.68;44.88;;;;;;;8.97;100.00;101855.22;4954997;28;20353;-78
2022/03/17 05:03:28;;;;;;;68.20;46.80;;;;;;;8.89;100.00;101857.97;4936086;28;20041;-80
2022/03/17 05:05:54;;;;;;;74.63;52.47;;;;;;;8.87;100.00;101873.44;4932059;28;20069;-79
2022/03/17 05:08:20;;;;;;;74.53;50.97;;;;;;;8.83;100.00;101876.47;4948882;28;20685;-78
2022/03/17 05:10:47;;;;;;;77.60;51.88;;;;;;;8.83;100.00;101875.63;4943383;28;20167;-78
2022/03/17 05:13:14;;;;;;;79.13;53.25;;;;;;;8.78;100.00;101880.72;4958257;28;20045;-78
2022/03/17 05:15:40;;;;;;;80.22;54.53;;;;;;;8.77;100.00;101885.22;4928185;28;20058;-78
2022/03/17 05:18:06;;;;;;;79.10;54.00;;;;;;;8.75;100.00;101879.22;4949190;28;20046;-78
2022/03/17 05:20:35;;;;;;;88.35;56.63;;;;;;;8.77;100.00;101901.34;4927591;28;20078;-78
2022/03/17 05:23:04;;;;;;;90.45;58.33;;;;;;;8.73;100.00;101899.19;4945414;28;20038;-79
2022/03/17 05:25:30;;;;;;;92.13;60.40;;;;;;;8.73;100.00;101907.25;4946491;28;20620;-80
2022/03/17 05:27:55;;;;;;;92.22;58.20;;;;;;;8.71;100.00;101917.34;4928834;28;20548;-77
2022/03/17 05:30:21;;;;;;;96.40;59.85;;;;;;;8.70;100.00;101915.66;4943253;28;20505;-77
2022/03/17 05:32:47;;;;;;;104.53;62.63;;;;;;;8.71;100.00;101928.94;4916469;28;20108;-77
2022/03/17 05:35:14;;;;;;;97.25;58.30;;;;;;;8.72;100.00;101945.88;4945465;28;20980;-76
2022/03/17 05:37:39;;;;;;;95.32;56.95;;;;;;;8.74;100.00;101955.44;4941298;28;20077;-77
2022/03/17 05:40:09;;;;;;;72.10;46.25;;;;;;;8.68;100.00;101956.13;4957107;28;23644;-77
2022/03/17 05:42:35;;;;;;;52.97;33.15;;;;;;;8.56;100.00;101962.88;4930347;28;20090;-77
2022/03/17 05:45:00;;;;;;;35.72;23.60;;;;;;;8.46;100.00;101989.06;4941437;28;20061;-76
2022/03/17 05:47:34;;;;;;;25.77;18.08;;;;;;;8.27;100.00;101990.25;4948873;28;20041;-75
2022/03/17 05:49:59;;;;;;;;;;;;;;;8.09;100.00;102004.69;4941354;28;20054;-75
2022/03/17 05:52:24;;;;;;;18.55;13.43;;;;;;;7.95;100.00;102016.09;4941766;28;20010;-76
2022/03/17 05:54:50;;;;;;;17.20;13.45;;;;;;;7.80;100.00;102031.19;4927124;28;20050;-76
2022/03/17 05:57:15;;;;;;;17.17;13.00;;;;;;;7.77;100.00;102053.81;4940929;28;20042;-76
2022/03/17 05:59:41;;;;;;;20.75;13.05;;;;;;;7.71;100.00;102043.72;4925999;28;20050;-76
2022/03/17 06:02:06;;;;;;;18.90;13.52;;;;;;;7.70;100.00;102031.31;4942618;28;20042;-76
2022/03/17 06:04:32;;;;;;;20.02;13.43;;;;;;;7.70;100.00;102039.38;4927126;28;20657;-76
2022/03/17 06:06:57;;;;;;;21.15;14.35;;;;;;;7.66;100.00;102040.72;4942287;28;20050;-76
2022/03/17 06:09:23;;;;;;;22.90;15.13;;;;;;;7.62;100.00;102044.72;4942067;28;20031;-75
2022/03/17 06:11:48;;;;;;;25.33;16.17;;;;;;;7.59;100.00;102050.41;4925644;28;20069;-75
2022/03/17 06:14:13;;;;;;;30.95;17.30;;;;;;;7.61;100.00;102065.31;4941799;28;20038;-75
2022/03/17 06:16:39;;;;;;;29.08;17.58;;;;;;;7.60;100.00;102073.53;4925162;28;20753;-75
2022/03/17 06:19:04;;;;;;;29.58;18.48;;;;;;;7.57;100.00;102095.31;4939211;28;20057;-76
2022/03/17 06:21:30;;;;;;;35.92;18.90;;;;;;;7.56;100.00;102082.91;4922746;28;20055;-75
2022/03/17 06:23:55;;;;;;;35.40;19.67;;;;;;;7.59;100.00;102088.78;4947039;28;20034;-75
2022/03/17 06:26:20;;;;;;;37.53;20.20;;;;;;;7.59;100.00;102096.00;4940688;28;20035;-76
2022/03/17 06:28:46;;;;;;;29.75;17.90;;;;;;;7.57;100.00;102109.56;4931011;28;20050;-76
2022/03/17 06:31:12;;;;;;;32.08;15.55;;;;;;;7.52;100.00;102117.25;4942988;28;20084;-76
2022/03/17 06:33:38;;;;;;;32.05;14.27;;;;;;;7.62;100.00;102130.53;4927647;28;20057;-76
2022/03/17 06:36:04;;;;;;;25.77;14.40;;;;;;;7.60;100.00;102144.09;4944353;28;20034;-75
2022/03/17 06:38:29;;;;;;;28.95;13.38;;;;;;;7.64;100.00;102144.63;4933053;28;20089;-74
2022/03/17 06:40:55;;;;;;;21.38;13.38;;;;;;;7.59;100.00;102152.31;4946884;28;20046;-75
2022/03/17 06:43:20;;;;;;;22.13;13.23;;;;;;;7.61;100.00;102147.63;4918094;28;20038;-74
2022/03/17 06:45:46;;;;;;;25.45;13.27;;;;;;;7.56;100.00;102142.75;4941786;28;20022;-75
2022/03/17 06:48:11;;;;;;;27.08;13.88;;;;;;;7.59;100.00;102155.00;4941210;28;20038;-75
2022/03/17 06:50:37;;;;;;;22.05;12.73;;;;;;;7.62;100.00;102168.09;4927365;28;20042;-75
2022/03/17 06:53:03;;;;;;;27.45;11.90;;;;;;;7.58;100.00;102161.34;4943344;28;20046;-75
2022/03/17 06:55:28;;;;;;;27.90;11.25;;;;;;;7.58;100.00;102178.28;4922425;28;20092;-75
2022/03/17 06:57:54;;;;;;;22.92;9.75;;;;;;;7.54;100.00;102170.72;4941208;28;20034;-75
2022/03/17 07:00:20;;;;;;;29.17;9.38;;;;;;;7.55;100.00;102188.50;4923145;28;20055;-75
2022/03/17 07:02:45;;;;;;;34.38;8.77;;;;;;;7.54;100.00;102198.38;4937091;28;23761;-75
2022/03/17 07:05:11;;;;;;;23.73;8.15;;;;;;;7.50;100.00;102213.09;4935597;28;20049;-75
2022/03/17 07:07:37;;;;;;;19.05;7.78;;;;;;;7.52;100.00;102219.16;4929183;28;20061;-75
2022/03/17 07:10:06;;;;;;;23.33;6.90;;;;;;;7.52;100.00;102226.34;4941318;28;20041;-75
2022/03/17 07:12:32;;;;;;;17.52;6.13;;;;;;;7.49;100.00;102234.72;4909496;28;20138;-75
2022/03/17 07:14:57;;;;;;;16.92;5.93;;;;;;;7.47;100.00;102250.09;4941787;28;20041;-75
2022/03/17 07:17:23;;;;;;;13.23;4.43;;;;;;;7.41;100.00;102263.16;4925776;28;20046;-75
2022/03/17 07:22:32;;;;;;;16.05;3.88;;;;;;;7.57;100.00;102261.56;4925420;28;20054;-75
2022/03/17 07:24:57;;;;;;;13.88;3.95;;;;;;;7.60;100.00;102266.63;4941054;28;20047;-75
2022/03/17 07:27:23;;;;;;;18.73;3.28;;;;;;;7.66;100.00;102266.00;4932002;28;20042;-75
2022/03/17 07:29:49;;;;;;;15.85;3.50;;;;;;;7.82;100.00;102287.53;4945877;28;20583;-75
2022/03/17 07:32:15;;;;;;;9.57;2.70;;;;;;;7.82;100.00;102282.16;4927791;28;20034;-75
2022/03/17 07:34:40;;;;;;;10.15;2.97;;;;;;;7.91;100.00;102293.78;4919743;28;20054;-74
2022/03/17 07:37:06;;;;;;;12.80;2.30;;;;;;;7.99;100.00;102292.97;4944512;28;20038;-76
2022/03/17 07:39:31;;;;;;;17.13;3.40;;;;;;;7.97;100.00;102301.22;4928770;28;20114;-75
2022/03/17 07:41:56;;;;;;;13.15;2.67;;;;;;;7.93;100.00;102304.34;4945701;28;20092;-76
2022/03/17 07:44:22;;;;;;;19.77;3.17;;;;;;;7.84;100.00;102312.38;4928937;28;20153;-75
2022/03/17 07:46:48;;;;;;;12.68;2.72;;;;;;;7.84;100.00;102315.03;4944733;28;20027;-75
2022/03/17 07:49:14;;;;;;;15.10;3.05;;;;;;;7.72;100.00;102329.75;4942123;28;20038;-76
2022/03/17 07:51:40;;;;;;;12.15;3.38;;;;;;;7.66;100.00;102314.28;4936014;28;20056;-76
2022/03/17 07:54:07;;;;;;;12.73;2.85;;;;;;;7.67;100.00;102347.28;4943300;28;20066;-76
2022/03/17 07:56:33;;;;;;;13.70;2.58;;;;;;;7.60;100.00;102342.53;4930242;28;20076;-77
2022/03/17 07:58:58;;;;;;;20.00;3.40;;;;;;;7.56;100.00;102346.53;4934534;28;20027;-76
2022/03/17 08:01:25;;;;;;;18.92;3.63;;;;;;;7.60;100.00;102360.47;4942352;28;23952;-76
2022/03/17 08:03:52;;;;;;;15.90;3.20;;;;;;;7.67;100.00;102348.13;4945749;28;20068;-76
2022/03/17 08:06:18;;;;;;;23.85;5.32;;;;;;;7.75;100.00;102366.94;4936013;28;20190;-76
2022/03/17 08:08:46;;;;;;;20.48;2.67;;;;;;;7.72;100.00;102356.56;4950240;28;20034;-76
2022/03/17 08:11:12;;;;;;;20.08;3.25;;;;;;;7.68;100.00;102365.91;4943520;28;20121;-76
2022/03/17 08:13:37;;;;;;;17.88;2.95;;;;;;;7.67;100.00;102348.13;4934729;28;20058;-77
2022/03/17 08:16:03;;;;;;;25.98;2.70;;;;;;;7.61;100.00;102397.03;4943484;28;20062;-77
2022/03/17 08:18:30;;;;;;;25.20;6.80;;;;;;;7.61;100.00;102380.94;4927758;28;20054;-77
2022/03/17 08:20:55;;;;;;;14.45;2.65;;;;;;;7.72;100.00;102399.47;4945234;28;20177;-76
2022/03/17 08:23:21;;;;;;;15.82;3.90;;;;;;;7.80;100.00;102404.06;4926045;28;20047;-77
2022/03/17 08:25:48;;;;;;;18.85;3.38;;;;;;;7.85;100.00;102410.63;4947791;28;20034;-76
2022/03/17 08:28:14;;;;;;;24.08;3.42;;;;;;;7.92;100.00;102416.22;4915387;28;20145;-76
2022/03/17 08:30:39;;;;;;;18.05;3.03;;;;;;;7.76;100.00;102416.94;4950062;28;20034;-76
2022/03/17 08:33:05;;;;;;;16.52;2.58;;;;;;;7.80;100.00;102438.94;4945019;28;20045;-76
2022/03/17 08:35:31;;;;;;;20.38;2.95;;;;;;;7.84;100.00;102441.13;4928891;28;20538;-77
2022/03/17 08:37:59;;;;;;;29.10;3.30;;;;;;;7.90;100.00;102442.38;4946733;28;20116;-77
2022/03/17 08:40:25;;;;;;;21.95;2.78;;;;;;;7.82;100.00;102464.59;4930573;28;20059;-76
2022/03/17 08:42:50;;;;;;;24.00;4.20;;;;;;;7.78;100.00;102446.28;4942558;28;20080;-78
2022/03/17 08:50:45;;;;;;;26.48;6.10;;;;;;;7.87;100.00;102477.56;4936850;28;20078;-74
2022/03/17 08:53:11;;;;;;;18.10;3.83;;;;;;;7.98;100.00;102484.53;4948786;28;21260;-73
2022/03/17 08:55:37;;;;;;;20.15;4.10;;;;;;;7.99;100.00;102487.03;4952791;28;20044;-75
2022/03/17 08:58:06;;;;;;;15.73;3.60;;;;;;;8.01;100.00;102508.38;4935864;28;20051;-74
2022/03/17 09:00:34;;;;;;;23.92;4.60;;;;;;;7.85;100.00;102496.47;4947886;28;20031;-78
2022/03/17 09:03:02;;;;;;;29.95;6.07;;;;;;;7.91;100.00;102515.66;4927211;28;20141;-74
2022/03/17 09:05:28;;;;;;;18.92;4.07;;;;;;;7.82;100.00;102523.59;4961725;28;20054;-75
2022/03/17 09:07:54;;;;;;;24.10;4.97;;;;;;;7.78;100.00;102514.19;4930104;28;20126;-75
2022/03/17 09:10:22;;;;;;;30.50;9.35;;;;;;;7.71;100.00;102531.06;4945519;28;20466;-77
2022/03/17 09:12:47;;;;;;;20.75;5.38;;;;;;;7.70;100.00;102538.25;4928514;28;20042;-76
2022/03/17 09:15:14;;;;;;;18.20;3.03;;;;;;;7.69;100.00;102539.28;4941263;28;20039;-77
2022/03/17 09:17:42;;;;;;;19.38;5.22;;;;;;;7.65;100.00;102559.31;4939451;28;20034;-76
2022/03/17 09:20:13;;;;;;;25.92;6.10;;;;;;;7.82;100.00;102574.59;4932973;28;20070;-76
2022/03/17 09:22:40;;;;;;;26.90;5.22;;;;;;;7.94;100.00;102572.53;4926812;28;20057;-75
2022/03/17 09:25:07;;;;;;;22.88;4.13;;;;;;;8.13;100.00;102558.94;4928053;28;20061;-76
2022/03/17 09:27:32;;;;;;;18.80;4.47;;;;;;;8.36;100.00;102580.78;4942663;28;20032;-75
2022/03/17 09:29:58;;;;;;;35.83;11.32;;;;;;;8.57;100.00;102576.94;4929346;28;20046;-75
2022/03/17 09:32:24;;;;;;;19.35;4.57;;;;;;;8.62;100.00;102574.63;4943228;28;20046;-75
2022/03/17 09:34:50;;;;;;;18.75;3.78;;;;;;;8.46;100.00;102590.63;4931063;28;20063;-76
2022/03/17 09:37:17;;;;;;;20.58;4.22;;;;;;;8.29;100.00;102585.09;4944517;28;20034;-75
2022/03/17 09:39:46;;;;;;;29.38;8.50;;;;;;;8.23;100.00;102604.50;4957587;28;20069;-76
2022/03/17 09:42:16;;;;;;;30.95;5.80;;;;;;;8.17;100.00;102609.63;4935800;28;20058;-76
2022/03/17 09:44:42;;;;;;;36.75;8.50;;;;;;;8.22;100.00;102616.25;4949166;28;20049;-75
2022/03/17 09:47:09;;;;;;;36.25;11.65;;;;;;;8.04;100.00;102602.00;4915113;28;20062;-76
2022/03/17 09:49:38;;;;;;;25.50;6.95;;;;;;;7.99;100.00;102610.47;4949019;28;20120;-76
2022/03/17 09:52:11;;;;;;;41.60;15.60;;;;;;;8.19;100.00;102616.56;4927467;28;20069;-75
2022/03/17 09:54:37;;;;;;;23.10;6.50;;;;;;;8.25;100.00;102631.19;4940502;28;20034;-76
2022/03/17 09:57:03;;;;;;;34.72;9.93;;;;;;;8.43;100.00;102639.28;4925422;28;20055;-76
2022/03/17 09:59:29;;;;;;;26.25;7.30;;;;;;;8.52;100.00;102649.09;4940422;28;20110;-77
2022/03/17 10:01:54;;;;;;;22.55;5.10;;;;;;;8.59;100.00;102655.53;4932020;28;20054;-76
2022/03/17 10:04:20;;;;;;;38.50;10.27;;;;;;;8.74;100.00;102667.41;4942734;28;21369;-76
2022/03/17 10:06:47;;;;;;;20.67;3.20;;;;;;;8.81;100.00;102660.41;4956793;28;20069;-76
2022/03/17 10:09:12;;;;;;;31.40;10.07;;;;;;;8.94;100.00;102673.41;4929107;28;20043;-75
2022/03/17 10:11:38;;;;;;;18.60;4.78;;;;;;;9.07;100.00;102659.56;4946931;28;20053;-75
2022/03/17 10:14:05;;;;;;;29.73;9.10;;;;;;;9.13;100.00;102672.38;4927166;28;20074;-75
2022/03/17 10:16:31;;;;;;;24.45;9.25;;;;;;;9.26;100.00;102675.47;4929537;28;20046;-76
2022/03/17 10:18:58;;;;;;;29.42;8.68;;;;;;;9.26;100.00;102678.16;4922484;28;20501;-75
2022/03/17 10:21:24;;;;;;;27.80;11.23;;;;;;;9.28;100.00;102681.53;4945259;28;20049;-76
2022/03/17 10:23:49;;;;;;;30.38;10.10;;;;;;;9.42;100.00;102695.41;4933351;28;20034;-75
2022/03/17 10:26:41;;;;;;;33.92;12.60;;;;;;;9.52;100.00;102701.53;4929721;28;20054;-73
2022/03/17 10:29:20;;;;;;;30.45;7.68;;;;;;;9.84;100.00;102716.13;4946717;28;20479;-76
2022/03/17 10:32:01;;;;;;;9.30;2.15;;;;;;;10.13;100.00;102705.78;4933378;28;22326;-75
2022/03/17 10:34:48;;;;;;;18.10;3.30;;;;;;;10.49;100.00;102721.69;4950828;28;20105;-75
2022/03/17 10:37:21;;;;;;;16.42;2.40;;;;;;;10.44;100.00;102730.28;4925815;28;20149;-75
2022/03/17 10:39:51;;;;;;;21.75;3.38;;;;;;;10.42;100.00;102736.84;4940794;28;20093;-76
2022/03/17 10:42:21;;;;;;;23.42;5.63;;;;;;;10.86;100.00;102734.72;4941331;28;20141;-75
2022/03/17 10:44:52;;;;;;;24.85;5.07;;;;;;;11.42;100.00;102745.59;4955872;28;20089;-76
2022/03/17 10:47:33;;;;;;;22.50;6.63;;;;;;;11.16;100.00;102749.38;4929715;28;20537;-75
2022/03/17 10:50:09;;;;;;;20.45;4.47;;;;;;;11.47;100.00;102751.31;4937529;28;20410;-75
2022/03/17 10:52:57;;;;;;;14.20;2.90;;;;;;;12.09;78.73;102737.13;4913078;28;20103;-74
2022/03/17 10:55:31;;;;;;;15.25;3.60;;;;;;;12.56;78.16;102766.72;4941909;28;20038;-75
2022/03/17 10:58:09;;;;;;;30.55;7.20;;;;;;;13.06;71.01;102762.66;4914574;28;20142;-76
2022/03/17 11:00:47;;;;;;;28.00;8.43;;;;;;;12.53;74.97;102759.00;4948422;28;20031;-76
2022/03/17 11:03:13;;;;;;;26.23;8.55;;;;;;;12.28;75.82;102768.25;4928964;28;20156;-76
2022/03/17 11:05:39;;;;;;;20.23;4.55;;;;;;;12.54;77.97;102781.47;4945114;28;20040;-75
2022/03/17 11:08:06;;;;;;;22.38;6.88;;;;;;;12.33;78.08;102782.09;4942431;28;20038;-75
2022/03/17 11:10:32;;;;;;;29.92;7.45;;;;;;;12.34;76.49;102789.19;4930180;28;20050;-75
2022/03/17 11:13:04;;;;;;;20.67;6.22;;;;;;;12.08;78.61;102795.72;4942274;28;22378;-75
2022/03/17 11:15:30;;;;;;;18.23;7.32;;;;;;;11.92;76.60;102803.88;4925152;28;20061;-75
2022/03/17 11:18:05;;;;;;;25.23;7.88;;;;;;;11.19;82.86;102818.28;4943413;28;20030;-75
2022/03/17 11:20:31;;;;;;;29.20;8.48;;;;;;;11.06;92.20;102809.88;4928412;28;20790;-74
2022/03/17 11:23:15;;;;;;;16.80;4.32;;;;;;;11.64;86.63;102823.16;4942277;28;20491;-74
2022/03/17 11:25:52;;;;;;;17.45;4.15;;;;;;;12.28;73.48;102822.31;4929340;28;20138;-75
2022/03/17 11:28:20;;;;;;;14.50;3.30;;;;;;;12.22;69.38;102834.66;4945341;28;20050;-74